sensor_id;sensor_type;location;lat;lon;timestamp;P1;durP1;ratioP1;P2;durP2;ratioP2
40286;SDS011;25998;46.604;13.610;2023-07-16T00:01:29;10.50;;;8.95;;
40286;SDS011;25998;46.604;13.610;2023-07-16T00:04:40;9.65;;;8.80;;
40286;SDS011;25998;46.604;13.610;2023-07-16T00:07:51;10.95;;;8.80;;
40286;SDS011;25998;46.604;13.610;2023-07-16T00:11:03;10.85;;;8.45;;
40286;SDS011;25998;46.604;13.610;2023-07-16T00:14:14;10.90;;;8.43;;
40286;SDS011;25998;46.604;13.610;2023-07-16T00:17:25;10.10;;;9.10;;
40286;SDS011;25998;46.604;13.610;2023-07-16T00:20:35;10.00;;;9.05;;
40286;SDS011;25998;46.604;13.610;2023-07-16T00:23:46;11.48;;;10.30;;
40286;SDS011;25998;46.604;13.610;2023-07-16T00:26:57;9.95;;;9.05;;
40286;SDS011;25998;46.604;13.610;2023-07-16T00:30:09;10.85;;;9.73;;
40286;SDS011;25998;46.604;13.610;2023-07-16T00:33:20;10.50;;;9.48;;
40286;SDS011;25998;46.604;13.610;2023-07-16T00:36:31;10.70;;;9.77;;
40286;SDS011;25998;46.604;13.610;2023-07-16T00:39:42;10.80;;;9.63;;
40286;SDS011;25998;46.604;13.610;2023-07-16T00:42:53;10.30;;;9.30;;
40286;SDS011;25998;46.604;13.610;2023-07-16T00:46:03;10.32;;;9.32;;
40286;SDS011;25998;46.604;13.610;2023-07-16T00:49:14;10.50;;;9.30;;
40286;SDS011;25998;46.604;13.610;2023-07-16T00:52:25;10.77;;;9.63;;
40286;SDS011;25998;46.604;13.610;2023-07-16T00:55:38;10.98;;;9.65;;
40286;SDS011;25998;46.604;13.610;2023-07-16T00:58:50;10.45;;;9.55;;
40286;SDS011;25998;46.604;13.610;2023-07-16T01:02:00;10.45;;;9.38;;
40286;SDS011;25998;46.604;13.610;2023-07-16T01:05:12;10.55;;;9.55;;
40286;SDS011;25998;46.604;13.610;2023-07-16T01:08:30;11.05;;;9.95;;
40286;SDS011;25998;46.604;13.610;2023-07-16T01:11:50;12.43;;;10.90;;
40286;SDS011;25998;46.604;13.610;2023-07-16T01:15:03;11.27;;;10.20;;
40286;SDS011;25998;46.604;13.610;2023-07-16T01:18:14;11.43;;;10.38;;
40286;SDS011;25998;46.604;13.610;2023-07-16T01:21:26;14.50;;;11.05;;
40286;SDS011;25998;46.604;13.610;2023-07-16T01:31:52;11.98;;;10.77;;
40286;SDS011;25998;46.604;13.610;2023-07-16T01:35:05;11.40;;;10.35;;
40286;SDS011;25998;46.604;13.610;2023-07-16T01:38:17;11.52;;;10.43;;
40286;SDS011;25998;46.604;13.610;2023-07-16T01:41:29;13.40;;;11.45;;
40286;SDS011;25998;46.604;13.610;2023-07-16T01:44:40;12.38;;;11.13;;
40286;SDS011;25998;46.604;13.610;2023-07-16T01:51:16;11.40;;;10.40;;
40286;SDS011;25998;46.604;13.610;2023-07-16T01:54:28;12.20;;;11.00;;
40286;SDS011;25998;46.604;13.610;2023-07-16T01:57:39;11.85;;;10.80;;
40286;SDS011;25998;46.604;13.610;2023-07-16T02:00:50;12.48;;;11.23;;
40286;SDS011;25998;46.604;13.610;2023-07-16T02:04:00;12.98;;;11.73;;
40286;SDS011;25998;46.604;13.610;2023-07-16T02:07:11;12.73;;;11.52;;
40286;SDS011;25998;46.604;13.610;2023-07-16T02:10:22;11.57;;;10.50;;
40286;SDS011;25998;46.604;13.610;2023-07-16T02:13:33;12.80;;;11.70;;
40286;SDS011;25998;46.604;13.610;2023-07-16T02:16:44;14.00;;;11.70;;
40286;SDS011;25998;46.604;13.610;2023-07-16T02:19:55;13.18;;;11.82;;
40286;SDS011;25998;46.604;13.610;2023-07-16T02:23:06;12.60;;;11.40;;
40286;SDS011;25998;46.604;13.610;2023-07-16T02:26:16;13.10;;;11.88;;
40286;SDS011;25998;46.604;13.610;2023-07-16T02:29:27;12.85;;;11.65;;
40286;SDS011;25998;46.604;13.610;2023-07-16T02:32:38;14.48;;;13.05;;
40286;SDS011;25998;46.604;13.610;2023-07-16T02:35:49;12.73;;;11.63;;
40286;SDS011;25998;46.604;13.610;2023-07-16T02:39:02;11.60;;;10.52;;
40286;SDS011;25998;46.604;13.610;2023-07-16T02:42:13;12.48;;;10.80;;
40286;SDS011;25998;46.604;13.610;2023-07-16T02:45:24;13.13;;;12.02;;
40286;SDS011;25998;46.604;13.610;2023-07-16T02:48:35;12.65;;;11.55;;
40286;SDS011;25998;46.604;13.610;2023-07-16T02:51:46;12.30;;;11.10;;
40286;SDS011;25998;46.604;13.610;2023-07-16T02:54:57;12.40;;;11.23;;
40286;SDS011;25998;46.604;13.610;2023-07-16T02:58:07;11.90;;;10.80;;
40286;SDS011;25998;46.604;13.610;2023-07-16T03:01:18;12.63;;;11.48;;
40286;SDS011;25998;46.604;13.610;2023-07-16T03:04:29;12.40;;;11.27;;
40286;SDS011;25998;46.604;13.610;2023-07-16T03:07:40;13.00;;;11.80;;
40286;SDS011;25998;46.604;13.610;2023-07-16T03:10:50;13.13;;;11.05;;
40286;SDS011;25998;46.604;13.610;2023-07-16T03:14:01;13.45;;;11.27;;
40286;SDS011;25998;46.604;13.610;2023-07-16T03:17:12;11.82;;;10.80;;
40286;SDS011;25998;46.604;13.610;2023-07-16T03:20:23;13.27;;;11.98;;
40286;SDS011;25998;46.604;13.610;2023-07-16T03:23:34;13.15;;;11.95;;
40286;SDS011;25998;46.604;13.610;2023-07-16T03:26:45;13.52;;;11.95;;
40286;SDS011;25998;46.604;13.610;2023-07-16T03:29:56;12.23;;;11.13;;
40286;SDS011;25998;46.604;13.610;2023-07-16T03:33:07;12.00;;;10.90;;
40286;SDS011;25998;46.604;13.610;2023-07-16T03:36:18;12.38;;;11.18;;
40286;SDS011;25998;46.604;13.610;2023-07-16T03:39:29;12.27;;;11.02;;
40286;SDS011;25998;46.604;13.610;2023-07-16T03:42:40;13.88;;;12.52;;
40286;SDS011;25998;46.604;13.610;2023-07-16T03:45:51;12.52;;;11.43;;
40286;SDS011;25998;46.604;13.610;2023-07-16T03:49:03;12.90;;;11.80;;
40286;SDS011;25998;46.604;13.610;2023-07-16T03:52:18;14.13;;;12.73;;
40286;SDS011;25998;46.604;13.610;2023-07-16T03:55:29;13.98;;;12.50;;
40286;SDS011;25998;46.604;13.610;2023-07-16T03:58:40;13.60;;;12.32;;
40286;SDS011;25998;46.604;13.610;2023-07-16T04:01:51;12.98;;;11.88;;
40286;SDS011;25998;46.604;13.610;2023-07-16T04:05:02;13.82;;;12.57;;
40286;SDS011;25998;46.604;13.610;2023-07-16T04:08:13;12.20;;;11.23;;
40286;SDS011;25998;46.604;13.610;2023-07-16T04:11:24;12.93;;;11.70;;
40286;SDS011;25998;46.604;13.610;2023-07-16T04:14:35;13.70;;;12.40;;
40286;SDS011;25998;46.604;13.610;2023-07-16T04:17:46;13.75;;;12.50;;
40286;SDS011;25998;46.604;13.610;2023-07-16T04:20:57;13.07;;;11.88;;
40286;SDS011;25998;46.604;13.610;2023-07-16T04:24:08;13.05;;;11.88;;
40286;SDS011;25998;46.604;13.610;2023-07-16T04:27:18;13.25;;;12.07;;
40286;SDS011;25998;46.604;13.610;2023-07-16T04:30:29;13.27;;;12.18;;
40286;SDS011;25998;46.604;13.610;2023-07-16T04:33:40;14.18;;;12.88;;
40286;SDS011;25998;46.604;13.610;2023-07-16T04:36:51;12.60;;;11.38;;
40286;SDS011;25998;46.604;13.610;2023-07-16T04:40:02;13.25;;;12.15;;
40286;SDS011;25998;46.604;13.610;2023-07-16T04:43:14;12.65;;;11.55;;
40286;SDS011;25998;46.604;13.610;2023-07-16T04:46:25;14.25;;;12.95;;
40286;SDS011;25998;46.604;13.610;2023-07-16T04:49:36;14.32;;;13.02;;
40286;SDS011;25998;46.604;13.610;2023-07-16T04:52:46;13.27;;;11.75;;
40286;SDS011;25998;46.604;13.610;2023-07-16T04:55:57;12.90;;;11.80;;
40286;SDS011;25998;46.604;13.610;2023-07-16T04:59:08;14.07;;;12.57;;
40286;SDS011;25998;46.604;13.610;2023-07-16T05:02:19;13.90;;;12.68;;
40286;SDS011;25998;46.604;13.610;2023-07-16T05:05:30;15.00;;;13.68;;
40286;SDS011;25998;46.604;13.610;2023-07-16T05:08:41;16.08;;;14.10;;
40286;SDS011;25998;46.604;13.610;2023-07-16T05:11:51;15.77;;;14.13;;
40286;SDS011;25998;46.604;13.610;2023-07-16T05:15:02;13.77;;;12.55;;
40286;SDS011;25998;46.604;13.610;2023-07-16T05:18:13;14.63;;;13.32;;
40286;SDS011;25998;46.604;13.610;2023-07-16T05:21:25;14.77;;;13.57;;
40286;SDS011;25998;46.604;13.610;2023-07-16T05:24:36;14.02;;;12.73;;
40286;SDS011;25998;46.604;13.610;2023-07-16T05:27:47;13.45;;;12.20;;
40286;SDS011;25998;46.604;13.610;2023-07-16T05:30:59;14.63;;;13.30;;
40286;SDS011;25998;46.604;13.610;2023-07-16T05:34:10;14.25;;;13.15;;
40286;SDS011;25998;46.604;13.610;2023-07-16T05:37:21;14.35;;;13.07;;
40286;SDS011;25998;46.604;13.610;2023-07-16T05:40:32;14.30;;;12.80;;
40286;SDS011;25998;46.604;13.610;2023-07-16T05:43:43;13.63;;;12.43;;
40286;SDS011;25998;46.604;13.610;2023-07-16T05:46:54;12.73;;;11.48;;
40286;SDS011;25998;46.604;13.610;2023-07-16T05:50:05;13.75;;;12.50;;
40286;SDS011;25998;46.604;13.610;2023-07-16T05:53:16;13.48;;;12.27;;
40286;SDS011;25998;46.604;13.610;2023-07-16T05:56:27;12.15;;;11.15;;
40286;SDS011;25998;46.604;13.610;2023-07-16T05:59:38;11.75;;;10.40;;
40286;SDS011;25998;46.604;13.610;2023-07-16T06:02:49;12.75;;;11.55;;
40286;SDS011;25998;46.604;13.610;2023-07-16T06:06:00;11.38;;;10.27;;
40286;SDS011;25998;46.604;13.610;2023-07-16T06:09:10;12.23;;;10.48;;
40286;SDS011;25998;46.604;13.610;2023-07-16T06:12:21;11.00;;;9.85;;
40286;SDS011;25998;46.604;13.610;2023-07-16T06:15:32;10.00;;;9.07;;
40286;SDS011;25998;46.604;13.610;2023-07-16T06:18:43;10.65;;;9.75;;
40286;SDS011;25998;46.604;13.610;2023-07-16T06:21:54;11.25;;;9.73;;
40286;SDS011;25998;46.604;13.610;2023-07-16T06:25:05;10.27;;;9.27;;
40286;SDS011;25998;46.604;13.610;2023-07-16T06:28:16;9.82;;;8.93;;
40286;SDS011;25998;46.604;13.610;2023-07-16T06:31:27;9.75;;;8.90;;
40286;SDS011;25998;46.604;13.610;2023-07-16T06:34:38;9.60;;;8.75;;
40286;SDS011;25998;46.604;13.610;2023-07-16T06:37:49;8.55;;;7.78;;
40286;SDS011;25998;46.604;13.610;2023-07-16T06:41:00;8.57;;;7.72;;
40286;SDS011;25998;46.604;13.610;2023-07-16T06:44:10;8.80;;;8.00;;
40286;SDS011;25998;46.604;13.610;2023-07-16T06:47:21;9.15;;;7.70;;
40286;SDS011;25998;46.604;13.610;2023-07-16T06:50:32;9.07;;;8.10;;
40286;SDS011;25998;46.604;13.610;2023-07-16T06:53:43;9.73;;;7.65;;
40286;SDS011;25998;46.604;13.610;2023-07-16T06:56:54;9.18;;;8.18;;
40286;SDS011;25998;46.604;13.610;2023-07-16T07:00:06;9.63;;;7.78;;
40286;SDS011;25998;46.604;13.610;2023-07-16T07:03:20;9.32;;;8.43;;
40286;SDS011;25998;46.604;13.610;2023-07-16T07:06:31;10.48;;;7.15;;
40286;SDS011;25998;46.604;13.610;2023-07-16T07:09:42;8.05;;;7.35;;
40286;SDS011;25998;46.604;13.610;2023-07-16T07:12:53;8.50;;;7.75;;
40286;SDS011;25998;46.604;13.610;2023-07-16T07:16:04;8.07;;;7.13;;
40286;SDS011;25998;46.604;13.610;2023-07-16T07:19:14;7.95;;;7.28;;
40286;SDS011;25998;46.604;13.610;2023-07-16T07:22:25;8.13;;;7.35;;
40286;SDS011;25998;46.604;13.610;2023-07-16T07:25:36;7.60;;;6.82;;
40286;SDS011;25998;46.604;13.610;2023-07-16T07:28:47;7.30;;;6.57;;
40286;SDS011;25998;46.604;13.610;2023-07-16T07:31:58;7.57;;;6.68;;
40286;SDS011;25998;46.604;13.610;2023-07-16T07:35:10;7.90;;;7.10;;
40286;SDS011;25998;46.604;13.610;2023-07-16T07:38:21;7.75;;;7.03;;
40286;SDS011;25998;46.604;13.610;2023-07-16T07:41:31;8.48;;;7.10;;
40286;SDS011;25998;46.604;13.610;2023-07-16T07:44:42;7.20;;;6.60;;
40286;SDS011;25998;46.604;13.610;2023-07-16T07:47:53;7.28;;;6.63;;
40286;SDS011;25998;46.604;13.610;2023-07-16T07:51:04;7.85;;;6.50;;
40286;SDS011;25998;46.604;13.610;2023-07-16T07:54:15;7.82;;;6.82;;
40286;SDS011;25998;46.604;13.610;2023-07-16T07:57:26;6.88;;;6.03;;
40286;SDS011;25998;46.604;13.610;2023-07-16T08:00:37;7.60;;;6.85;;
40286;SDS011;25998;46.604;13.610;2023-07-16T08:03:49;10.07;;;6.82;;
40286;SDS011;25998;46.604;13.610;2023-07-16T08:07:00;7.88;;;7.05;;
40286;SDS011;25998;46.604;13.610;2023-07-16T08:10:11;6.97;;;6.30;;
40286;SDS011;25998;46.604;13.610;2023-07-16T08:13:21;9.50;;;7.03;;
40286;SDS011;25998;46.604;13.610;2023-07-16T08:16:32;8.70;;;6.55;;
40286;SDS011;25998;46.604;13.610;2023-07-16T08:19:43;8.15;;;6.93;;
40286;SDS011;25998;46.604;13.610;2023-07-16T08:22:54;8.57;;;7.22;;
40286;SDS011;25998;46.604;13.610;2023-07-16T08:26:05;7.30;;;6.60;;
40286;SDS011;25998;46.604;13.610;2023-07-16T08:29:16;7.43;;;6.72;;
40286;SDS011;25998;46.604;13.610;2023-07-16T08:32:27;8.77;;;7.13;;
40286;SDS011;25998;46.604;13.610;2023-07-16T08:35:39;7.65;;;6.90;;
40286;SDS011;25998;46.604;13.610;2023-07-16T08:38:50;8.13;;;7.43;;
40286;SDS011;25998;46.604;13.610;2023-07-16T08:42:01;8.05;;;7.28;;
40286;SDS011;25998;46.604;13.610;2023-07-16T08:45:12;7.88;;;7.00;;
40286;SDS011;25998;46.604;13.610;2023-07-16T08:48:25;8.32;;;7.28;;
40286;SDS011;25998;46.604;13.610;2023-07-16T08:51:38;8.52;;;7.63;;
40286;SDS011;25998;46.604;13.610;2023-07-16T08:54:50;8.35;;;7.55;;
40286;SDS011;25998;46.604;13.610;2023-07-16T08:58:01;7.90;;;7.20;;
40286;SDS011;25998;46.604;13.610;2023-07-16T09:01:12;8.00;;;7.18;;
40286;SDS011;25998;46.604;13.610;2023-07-16T09:04:24;8.18;;;7.18;;
40286;SDS011;25998;46.604;13.610;2023-07-16T09:07:35;7.68;;;6.97;;
40286;SDS011;25998;46.604;13.610;2023-07-16T09:10:57;10.50;;;7.85;;
40286;SDS011;25998;46.604;13.610;2023-07-16T09:14:08;7.75;;;6.93;;
40286;SDS011;25998;46.604;13.610;2023-07-16T09:17:21;7.10;;;6.50;;
40286;SDS011;25998;46.604;13.610;2023-07-16T09:20:33;7.20;;;6.60;;
40286;SDS011;25998;46.604;13.610;2023-07-16T09:23:44;7.68;;;6.88;;
40286;SDS011;25998;46.604;13.610;2023-07-16T09:26:55;8.60;;;6.68;;
40286;SDS011;25998;46.604;13.610;2023-07-16T09:30:14;12.80;;;7.18;;
40286;SDS011;25998;46.604;13.610;2023-07-16T09:33:26;7.30;;;6.60;;
40286;SDS011;25998;46.604;13.610;2023-07-16T09:36:37;7.65;;;6.40;;
40286;SDS011;25998;46.604;13.610;2023-07-16T09:39:48;8.18;;;6.32;;
40286;SDS011;25998;46.604;13.610;2023-07-16T09:42:59;6.55;;;5.75;;
40286;SDS011;25998;46.604;13.610;2023-07-16T09:46:11;6.82;;;6.07;;
40286;SDS011;25998;46.604;13.610;2023-07-16T09:49:22;8.27;;;6.45;;
40286;SDS011;25998;46.604;13.610;2023-07-16T09:52:33;9.98;;;6.20;;
40286;SDS011;25998;46.604;13.610;2023-07-16T09:55:44;7.00;;;6.30;;
40286;SDS011;25998;46.604;13.610;2023-07-16T09:58:56;7.03;;;6.32;;
40286;SDS011;25998;46.604;13.610;2023-07-16T10:02:08;7.40;;;6.68;;
40286;SDS011;25998;46.604;13.610;2023-07-16T10:05:23;9.15;;;6.40;;
40286;SDS011;25998;46.604;13.610;2023-07-16T10:08:35;6.88;;;6.10;;
40286;SDS011;25998;46.604;13.610;2023-07-16T10:11:46;7.45;;;6.72;;
40286;SDS011;25998;46.604;13.610;2023-07-16T10:14:57;8.10;;;6.43;;
40286;SDS011;25998;46.604;13.610;2023-07-16T10:18:08;6.10;;;5.50;;
40286;SDS011;25998;46.604;13.610;2023-07-16T10:21:22;6.32;;;5.60;;
40286;SDS011;25998;46.604;13.610;2023-07-16T10:24:35;6.68;;;5.38;;
40286;SDS011;25998;46.604;13.610;2023-07-16T10:27:50;7.05;;;6.10;;
40286;SDS011;25998;46.604;13.610;2023-07-16T10:31:02;6.88;;;5.55;;
40286;SDS011;25998;46.604;13.610;2023-07-16T10:34:13;7.68;;;5.80;;
40286;SDS011;25998;46.604;13.610;2023-07-16T10:37:24;6.70;;;5.95;;
40286;SDS011;25998;46.604;13.610;2023-07-16T10:40:39;8.13;;;5.55;;
40286;SDS011;25998;46.604;13.610;2023-07-16T10:43:54;6.13;;;5.53;;
40286;SDS011;25998;46.604;13.610;2023-07-16T10:47:06;6.50;;;5.90;;
40286;SDS011;25998;46.604;13.610;2023-07-16T10:50:18;6.47;;;5.72;;
40286;SDS011;25998;46.604;13.610;2023-07-16T10:53:31;7.85;;;5.22;;
40286;SDS011;25998;46.604;13.610;2023-07-16T10:56:41;7.55;;;6.35;;
40286;SDS011;25998;46.604;13.610;2023-07-16T10:59:54;6.60;;;5.53;;
40286;SDS011;25998;46.604;13.610;2023-07-16T11:03:06;6.82;;;5.68;;
40286;SDS011;25998;46.604;13.610;2023-07-16T11:06:18;8.55;;;5.70;;
40286;SDS011;25998;46.604;13.610;2023-07-16T11:09:29;7.57;;;5.63;;
40286;SDS011;25998;46.604;13.610;2023-07-16T11:12:41;7.53;;;5.63;;
40286;SDS011;25998;46.604;13.610;2023-07-16T11:15:52;7.07;;;6.28;;
40286;SDS011;25998;46.604;13.610;2023-07-16T11:19:04;7.32;;;5.50;;
40286;SDS011;25998;46.604;13.610;2023-07-16T11:22:16;7.20;;;5.65;;
40286;SDS011;25998;46.604;13.610;2023-07-16T11:25:27;9.90;;;5.53;;
40286;SDS011;25998;46.604;13.610;2023-07-16T11:28:38;7.20;;;5.80;;
40286;SDS011;25998;46.604;13.610;2023-07-16T11:31:52;6.97;;;5.75;;
40286;SDS011;25998;46.604;13.610;2023-07-16T11:35:03;7.22;;;5.78;;
40286;SDS011;25998;46.604;13.610;2023-07-16T11:38:17;6.18;;;5.53;;
40286;SDS011;25998;46.604;13.610;2023-07-16T11:41:28;6.00;;;5.28;;
40286;SDS011;25998;46.604;13.610;2023-07-16T11:44:39;6.57;;;5.70;;
40286;SDS011;25998;46.604;13.610;2023-07-16T11:47:49;6.90;;;5.60;;
40286;SDS011;25998;46.604;13.610;2023-07-16T11:51:00;6.90;;;4.90;;
40286;SDS011;25998;46.604;13.610;2023-07-16T11:54:11;6.43;;;5.13;;
40286;SDS011;25998;46.604;13.610;2023-07-16T11:57:23;6.85;;;5.25;;
40286;SDS011;25998;46.604;13.610;2023-07-16T12:00:34;8.95;;;5.47;;
40286;SDS011;25998;46.604;13.610;2023-07-16T12:03:44;5.88;;;5.28;;
40286;SDS011;25998;46.604;13.610;2023-07-16T12:06:55;7.13;;;5.00;;
40286;SDS011;25998;46.604;13.610;2023-07-16T12:10:07;4.63;;;3.70;;
40286;SDS011;25998;46.604;13.610;2023-07-16T12:13:18;5.18;;;4.07;;
40286;SDS011;25998;46.604;13.610;2023-07-16T12:16:29;4.97;;;4.13;;
40286;SDS011;25998;46.604;13.610;2023-07-16T12:19:40;5.45;;;3.92;;
40286;SDS011;25998;46.604;13.610;2023-07-16T12:22:50;5.63;;;3.83;;
40286;SDS011;25998;46.604;13.610;2023-07-16T12:26:01;5.25;;;3.70;;
40286;SDS011;25998;46.604;13.610;2023-07-16T12:29:12;5.50;;;3.85;;
40286;SDS011;25998;46.604;13.610;2023-07-16T12:32:23;5.65;;;3.60;;
40286;SDS011;25998;46.604;13.610;2023-07-16T12:35:34;7.53;;;3.50;;
40286;SDS011;25998;46.604;13.610;2023-07-16T12:38:44;5.63;;;3.38;;
40286;SDS011;25998;46.604;13.610;2023-07-16T12:41:55;4.65;;;3.63;;
40286;SDS011;25998;46.604;13.610;2023-07-16T12:45:06;4.53;;;3.17;;
40286;SDS011;25998;46.604;13.610;2023-07-16T12:48:17;4.90;;;3.58;;
40286;SDS011;25998;46.604;13.610;2023-07-16T12:51:28;8.90;;;3.75;;
40286;SDS011;25998;46.604;13.610;2023-07-16T12:54:39;4.35;;;3.33;;
40286;SDS011;25998;46.604;13.610;2023-07-16T12:57:50;3.97;;;3.00;;
40286;SDS011;25998;46.604;13.610;2023-07-16T13:01:01;5.10;;;3.55;;
40286;SDS011;25998;46.604;13.610;2023-07-16T13:04:12;5.85;;;3.10;;
40286;SDS011;25998;46.604;13.610;2023-07-16T13:07:23;4.47;;;3.20;;
40286;SDS011;25998;46.604;13.610;2023-07-16T13:10:34;5.63;;;3.83;;
40286;SDS011;25998;46.604;13.610;2023-07-16T13:13:45;4.15;;;3.40;;
40286;SDS011;25998;46.604;13.610;2023-07-16T13:16:56;6.55;;;3.35;;
40286;SDS011;25998;46.604;13.610;2023-07-16T13:20:07;5.47;;;3.38;;
40286;SDS011;25998;46.604;13.610;2023-07-16T13:23:19;5.07;;;3.50;;
40286;SDS011;25998;46.604;13.610;2023-07-16T13:26:29;4.97;;;3.38;;
40286;SDS011;25998;46.604;13.610;2023-07-16T13:29:40;5.72;;;3.50;;
40286;SDS011;25998;46.604;13.610;2023-07-16T13:32:51;6.07;;;3.40;;
40286;SDS011;25998;46.604;13.610;2023-07-16T13:36:05;5.22;;;3.00;;
40286;SDS011;25998;46.604;13.610;2023-07-16T13:39:16;4.05;;;3.33;;
40286;SDS011;25998;46.604;13.610;2023-07-16T13:42:27;4.68;;;3.20;;
40286;SDS011;25998;46.604;13.610;2023-07-16T13:45:38;5.35;;;3.45;;
40286;SDS011;25998;46.604;13.610;2023-07-16T13:48:49;4.43;;;2.80;;
40286;SDS011;25998;46.604;13.610;2023-07-16T13:52:00;5.85;;;3.20;;
40286;SDS011;25998;46.604;13.610;2023-07-16T13:55:11;5.45;;;2.92;;
40286;SDS011;25998;46.604;13.610;2023-07-16T13:58:22;5.47;;;3.17;;
40286;SDS011;25998;46.604;13.610;2023-07-16T14:01:38;6.13;;;3.10;;
40286;SDS011;25998;46.604;13.610;2023-07-16T14:04:50;5.95;;;3.03;;
40286;SDS011;25998;46.604;13.610;2023-07-16T14:08:00;5.20;;;3.30;;
40286;SDS011;25998;46.604;13.610;2023-07-16T14:11:11;3.65;;;2.80;;
40286;SDS011;25998;46.604;13.610;2023-07-16T14:14:22;4.15;;;3.10;;
40286;SDS011;25998;46.604;13.610;2023-07-16T14:17:33;3.95;;;2.95;;
40286;SDS011;25998;46.604;13.610;2023-07-16T14:20:44;3.70;;;3.17;;
40286;SDS011;25998;46.604;13.610;2023-07-16T14:23:55;4.38;;;3.00;;
40286;SDS011;25998;46.604;13.610;2023-07-16T14:27:06;5.18;;;3.47;;
40286;SDS011;25998;46.604;13.610;2023-07-16T14:30:18;4.95;;;3.20;;
40286;SDS011;25998;46.604;13.610;2023-07-16T14:33:29;9.00;;;3.33;;
40286;SDS011;25998;46.604;13.610;2023-07-16T14:36:40;5.70;;;3.10;;
40286;SDS011;25998;46.604;13.610;2023-07-16T14:39:52;4.32;;;3.20;;
40286;SDS011;25998;46.604;13.610;2023-07-16T14:43:04;5.13;;;3.33;;
40286;SDS011;25998;46.604;13.610;2023-07-16T14:46:16;7.75;;;3.33;;
40286;SDS011;25998;46.604;13.610;2023-07-16T14:49:27;6.55;;;3.60;;
40286;SDS011;25998;46.604;13.610;2023-07-16T14:52:38;4.10;;;3.08;;
40286;SDS011;25998;46.604;13.610;2023-07-16T14:55:51;4.32;;;3.30;;
40286;SDS011;25998;46.604;13.610;2023-07-16T14:59:02;7.05;;;3.08;;
40286;SDS011;25998;46.604;13.610;2023-07-16T15:02:13;4.80;;;2.70;;
40286;SDS011;25998;46.604;13.610;2023-07-16T15:05:24;5.78;;;3.30;;
40286;SDS011;25998;46.604;13.610;2023-07-16T15:08:35;5.50;;;3.00;;
40286;SDS011;25998;46.604;13.610;2023-07-16T15:11:46;4.57;;;2.80;;
40286;SDS011;25998;46.604;13.610;2023-07-16T15:14:57;6.00;;;2.90;;
40286;SDS011;25998;46.604;13.610;2023-07-16T15:18:08;4.75;;;3.10;;
40286;SDS011;25998;46.604;13.610;2023-07-16T15:21:18;6.55;;;2.45;;
40286;SDS011;25998;46.604;13.610;2023-07-16T15:24:29;6.93;;;3.33;;
40286;SDS011;25998;46.604;13.610;2023-07-16T15:27:40;4.15;;;2.80;;
40286;SDS011;25998;46.604;13.610;2023-07-16T15:30:51;4.25;;;2.97;;
40286;SDS011;25998;46.604;13.610;2023-07-16T15:34:02;4.85;;;2.50;;
40286;SDS011;25998;46.604;13.610;2023-07-16T15:37:13;6.03;;;2.92;;
40286;SDS011;25998;46.604;13.610;2023-07-16T15:40:23;4.07;;;3.10;;
40286;SDS011;25998;46.604;13.610;2023-07-16T15:43:34;4.35;;;3.15;;
40286;SDS011;25998;46.604;13.610;2023-07-16T15:46:45;3.97;;;2.60;;
40286;SDS011;25998;46.604;13.610;2023-07-16T15:49:56;4.47;;;2.95;;
40286;SDS011;25998;46.604;13.610;2023-07-16T15:53:07;4.40;;;2.45;;
40286;SDS011;25998;46.604;13.610;2023-07-16T15:56:18;5.35;;;2.80;;
40286;SDS011;25998;46.604;13.610;2023-07-16T15:59:28;3.63;;;2.90;;
40286;SDS011;25998;46.604;13.610;2023-07-16T16:02:41;6.63;;;2.78;;
40286;SDS011;25998;46.604;13.610;2023-07-16T16:05:54;3.80;;;2.63;;
40286;SDS011;25998;46.604;13.610;2023-07-16T16:09:05;8.82;;;2.90;;
40286;SDS011;25998;46.604;13.610;2023-07-16T16:12:16;4.38;;;2.80;;
40286;SDS011;25998;46.604;13.610;2023-07-16T16:15:27;5.20;;;3.00;;
40286;SDS011;25998;46.604;13.610;2023-07-16T16:18:38;5.00;;;2.90;;
40286;SDS011;25998;46.604;13.610;2023-07-16T16:21:48;3.33;;;2.60;;
40286;SDS011;25998;46.604;13.610;2023-07-16T16:25:00;4.53;;;3.05;;
40286;SDS011;25998;46.604;13.610;2023-07-16T16:28:12;6.35;;;3.13;;
40286;SDS011;25998;46.604;13.610;2023-07-16T16:31:23;4.25;;;3.00;;
40286;SDS011;25998;46.604;13.610;2023-07-16T16:34:35;3.50;;;2.78;;
40286;SDS011;25998;46.604;13.610;2023-07-16T16:37:46;4.57;;;3.17;;
40286;SDS011;25998;46.604;13.610;2023-07-16T16:41:01;3.97;;;3.10;;
40286;SDS011;25998;46.604;13.610;2023-07-16T16:44:17;4.53;;;2.85;;
40286;SDS011;25998;46.604;13.610;2023-07-16T16:47:28;5.35;;;2.92;;
40286;SDS011;25998;46.604;13.610;2023-07-16T16:50:39;3.83;;;3.22;;
40286;SDS011;25998;46.604;13.610;2023-07-16T16:53:50;4.60;;;3.05;;
40286;SDS011;25998;46.604;13.610;2023-07-16T16:57:01;5.28;;;2.88;;
40286;SDS011;25998;46.604;13.610;2023-07-16T17:00:13;5.35;;;3.10;;
40286;SDS011;25998;46.604;13.610;2023-07-16T17:03:26;5.05;;;3.17;;
40286;SDS011;25998;46.604;13.610;2023-07-16T17:06:37;4.82;;;3.22;;
40286;SDS011;25998;46.604;13.610;2023-07-16T17:09:48;5.15;;;3.05;;
40286;SDS011;25998;46.604;13.610;2023-07-16T17:13:00;6.43;;;3.00;;
40286;SDS011;25998;46.604;13.610;2023-07-16T17:16:10;4.25;;;3.17;;
40286;SDS011;25998;46.604;13.610;2023-07-16T17:19:22;4.82;;;2.85;;
40286;SDS011;25998;46.604;13.610;2023-07-16T17:22:33;5.45;;;3.05;;
40286;SDS011;25998;46.604;13.610;2023-07-16T17:25:44;5.63;;;3.15;;
40286;SDS011;25998;46.604;13.610;2023-07-16T17:28:55;6.15;;;2.70;;
40286;SDS011;25998;46.604;13.610;2023-07-16T17:32:06;4.35;;;3.13;;
40286;SDS011;25998;46.604;13.610;2023-07-16T17:35:17;4.75;;;3.00;;
40286;SDS011;25998;46.604;13.610;2023-07-16T17:38:28;6.03;;;3.15;;
40286;SDS011;25998;46.604;13.610;2023-07-16T17:41:39;5.00;;;2.83;;
40286;SDS011;25998;46.604;13.610;2023-07-16T17:44:50;5.50;;;3.00;;
40286;SDS011;25998;46.604;13.610;2023-07-16T17:48:01;5.07;;;3.10;;
40286;SDS011;25998;46.604;13.610;2023-07-16T17:51:12;5.68;;;3.20;;
40286;SDS011;25998;46.604;13.610;2023-07-16T17:54:26;5.57;;;3.17;;
40286;SDS011;25998;46.604;13.610;2023-07-16T17:57:36;5.60;;;3.13;;
40286;SDS011;25998;46.604;13.610;2023-07-16T18:00:48;6.65;;;2.80;;
40286;SDS011;25998;46.604;13.610;2023-07-16T18:04:04;6.30;;;3.40;;
40286;SDS011;25998;46.604;13.610;2023-07-16T18:07:15;4.65;;;3.17;;
40286;SDS011;25998;46.604;13.610;2023-07-16T18:10:26;6.88;;;3.13;;
40286;SDS011;25998;46.604;13.610;2023-07-16T18:13:39;7.50;;;3.85;;
40286;SDS011;25998;46.604;13.610;2023-07-16T18:16:50;5.47;;;3.28;;
40286;SDS011;25998;46.604;13.610;2023-07-16T18:20:01;4.82;;;3.25;;
40286;SDS011;25998;46.604;13.610;2023-07-16T18:23:13;5.80;;;3.35;;
40286;SDS011;25998;46.604;13.610;2023-07-16T18:26:24;5.47;;;3.38;;
40286;SDS011;25998;46.604;13.610;2023-07-16T18:29:35;5.68;;;3.38;;
40286;SDS011;25998;46.604;13.610;2023-07-16T18:32:46;8.38;;;3.30;;
40286;SDS011;25998;46.604;13.610;2023-07-16T18:35:57;4.13;;;3.30;;
40286;SDS011;25998;46.604;13.610;2023-07-16T18:39:08;6.68;;;3.22;;
40286;SDS011;25998;46.604;13.610;2023-07-16T18:42:19;6.53;;;3.88;;
40286;SDS011;25998;46.604;13.610;2023-07-16T18:45:30;8.27;;;4.47;;
40286;SDS011;25998;46.604;13.610;2023-07-16T18:48:41;6.97;;;4.07;;
40286;SDS011;25998;46.604;13.610;2023-07-16T18:51:52;5.63;;;4.25;;
40286;SDS011;25998;46.604;13.610;2023-07-16T18:55:02;6.35;;;3.67;;